Accueil
METAR-TAF:

METAR-TAF

Aéroports :

Huesca, Espagne

Aéroport de Huesca-Pyrénées

latitude: 42-04-32N, longitude: 0-18-58W, altitude: 539 m

Observation

Le bulletin a été fait il y a 42 minutes, à 08:30 UTC
Vent 3 kt de est, variant entre nord/nord-est et sud/sud-est
Température 22°C
Humidité 65%
Pression 1021 hPa
Visibilité 10 km ou plus
pas de nuages en-dessous de 1500 mètres et pas de cumulonimbus.

METAR: LEHC 190830Z 10003KT 020V150 CAVOK 22/15 Q1021

Heure: 11:12 (09:12 UTC)

Prévision

Le bulletin a été fait il y a 1 heure et 12 minutes, à 08:00 UTC
Prévision valable du 19 à 09 UTC au 20 à 09 UTC
Vent 5 kt de ouest
Visibilité 10 km ou plus
Quelques nuages à une hauteur de 4500 ft
Temporairement
du 19 à 14 UTC au 19 à 20 UTC
Vent 10 kt de ouest/nord-ouest

TAF: LEHC 190800Z 1909/2009 26005KT 9999 FEW045 TX31/1915Z TN15/2005Z TEMPO 1914/1920 29010KT

Observations et prévisions météorologiques de plus de 4000 aéroports (messages METAR et TAF).

Les stations disponibles sont représentées par des disques jaunes et rouges sur la carte.

Passer la souris dessus pour voir le nom de la station.

Cliquer dessus pour voir les observations et prévisions météorologiques.

Pour changer de carte: cliquez sur les boutons verts avec une croix noire pour zoomer, sur le bouton vert avec un tiret pour effectuer un zoom arrière, ou sur les flèches vertes pour les cartes adjacentes.


METAR-TAF: